sensor_id;sensor_type;location;lat;lon;timestamp;P1;durP1;ratioP1;P2;durP2;ratioP2
6791;SDS011;3433;48.730;9.108;2023-06-22T00:02:32;10.67;;;9.27;;
6791;SDS011;3433;48.730;9.108;2023-06-22T00:05:19;11.03;;;9.30;;
6791;SDS011;3433;48.730;9.108;2023-06-22T00:08:06;11.73;;;9.60;;
6791;SDS011;3433;48.730;9.108;2023-06-22T00:10:53;11.93;;;10.00;;
6791;SDS011;3433;48.730;9.108;2023-06-22T00:13:40;13.40;;;10.00;;
6791;SDS011;3433;48.730;9.108;2023-06-22T00:16:29;10.67;;;8.90;;
6791;SDS011;3433;48.730;9.108;2023-06-22T00:19:17;12.17;;;8.80;;
6791;SDS011;3433;48.730;9.108;2023-06-22T00:22:05;13.20;;;10.07;;
6791;SDS011;3433;48.730;9.108;2023-06-22T00:24:52;14.00;;;10.30;;
6791;SDS011;3433;48.730;9.108;2023-06-22T00:27:39;11.50;;;9.87;;
6791;SDS011;3433;48.730;9.108;2023-06-22T00:30:26;11.73;;;9.30;;
6791;SDS011;3433;48.730;9.108;2023-06-22T00:33:15;12.13;;;9.70;;
6791;SDS011;3433;48.730;9.108;2023-06-22T00:36:02;16.30;;;10.30;;
6791;SDS011;3433;48.730;9.108;2023-06-22T00:38:50;11.47;;;9.50;;
6791;SDS011;3433;48.730;9.108;2023-06-22T00:41:37;10.53;;;8.97;;
6791;SDS011;3433;48.730;9.108;2023-06-22T00:44:24;12.07;;;9.57;;
6791;SDS011;3433;48.730;9.108;2023-06-22T00:47:12;9.70;;;8.70;;
6791;SDS011;3433;48.730;9.108;2023-06-22T00:50:03;11.03;;;9.77;;
6791;SDS011;3433;48.730;9.108;2023-06-22T00:52:55;12.83;;;9.90;;
6791;SDS011;3433;48.730;9.108;2023-06-22T00:55:44;12.73;;;9.87;;
6791;SDS011;3433;48.730;9.108;2023-06-22T00:58:32;11.53;;;9.50;;
6791;SDS011;3433;48.730;9.108;2023-06-22T01:01:19;11.73;;;8.60;;
6791;SDS011;3433;48.730;9.108;2023-06-22T01:04:08;13.07;;;9.27;;
6791;SDS011;3433;48.730;9.108;2023-06-22T01:07:00;10.70;;;9.20;;
6791;SDS011;3433;48.730;9.108;2023-06-22T01:09:57;11.27;;;9.47;;
6791;SDS011;3433;48.730;9.108;2023-06-22T01:12:50;12.57;;;8.40;;
6791;SDS011;3433;48.730;9.108;2023-06-22T01:15:44;10.50;;;9.40;;
6791;SDS011;3433;48.730;9.108;2023-06-22T01:18:35;20.50;;;9.87;;
6791;SDS011;3433;48.730;9.108;2023-06-22T01:21:28;12.63;;;9.20;;
6791;SDS011;3433;48.730;9.108;2023-06-22T01:24:22;10.30;;;9.20;;
6791;SDS011;3433;48.730;9.108;2023-06-22T01:27:15;11.43;;;9.73;;
6791;SDS011;3433;48.730;9.108;2023-06-22T01:30:16;11.90;;;8.90;;
6791;SDS011;3433;48.730;9.108;2023-06-22T01:33:06;10.23;;;9.10;;
6791;SDS011;3433;48.730;9.108;2023-06-22T01:35:56;11.90;;;10.30;;
6791;SDS011;3433;48.730;9.108;2023-06-22T01:38:44;12.27;;;9.57;;
6791;SDS011;3433;48.730;9.108;2023-06-22T01:41:34;11.87;;;10.20;;
6791;SDS011;3433;48.730;9.108;2023-06-22T01:44:23;12.80;;;10.10;;
6791;SDS011;3433;48.730;9.108;2023-06-22T01:47:13;12.43;;;10.20;;
6791;SDS011;3433;48.730;9.108;2023-06-22T01:50:01;11.30;;;9.00;;
6791;SDS011;3433;48.730;9.108;2023-06-22T01:52:48;17.20;;;10.33;;
6791;SDS011;3433;48.730;9.108;2023-06-22T01:55:35;12.60;;;9.33;;
6791;SDS011;3433;48.730;9.108;2023-06-22T01:58:23;10.63;;;9.33;;
6791;SDS011;3433;48.730;9.108;2023-06-22T02:01:13;10.83;;;9.13;;
6791;SDS011;3433;48.730;9.108;2023-06-22T02:04:08;14.53;;;10.37;;
6791;SDS011;3433;48.730;9.108;2023-06-22T02:07:00;13.93;;;8.97;;
6791;SDS011;3433;48.730;9.108;2023-06-22T02:09:52;16.13;;;10.90;;
6791;SDS011;3433;48.730;9.108;2023-06-22T02:12:41;13.73;;;10.60;;
6791;SDS011;3433;48.730;9.108;2023-06-22T02:15:30;12.27;;;10.03;;
6791;SDS011;3433;48.730;9.108;2023-06-22T02:18:17;11.70;;;9.10;;
6791;SDS011;3433;48.730;9.108;2023-06-22T02:21:07;13.47;;;9.70;;
6791;SDS011;3433;48.730;9.108;2023-06-22T02:23:54;12.63;;;9.83;;
6791;SDS011;3433;48.730;9.108;2023-06-22T02:26:41;13.60;;;9.93;;
6791;SDS011;3433;48.730;9.108;2023-06-22T02:29:30;11.17;;;9.00;;
6791;SDS011;3433;48.730;9.108;2023-06-22T02:32:17;9.73;;;8.50;;
6791;SDS011;3433;48.730;9.108;2023-06-22T02:35:05;11.73;;;10.13;;
6791;SDS011;3433;48.730;9.108;2023-06-22T02:37:54;12.97;;;10.23;;
6791;SDS011;3433;48.730;9.108;2023-06-22T02:40:41;13.67;;;11.53;;
6791;SDS011;3433;48.730;9.108;2023-06-22T02:43:28;13.87;;;9.20;;
6791;SDS011;3433;48.730;9.108;2023-06-22T02:46:15;11.13;;;10.00;;
6791;SDS011;3433;48.730;9.108;2023-06-22T02:49:03;12.60;;;10.33;;
6791;SDS011;3433;48.730;9.108;2023-06-22T02:51:50;12.50;;;9.90;;
6791;SDS011;3433;48.730;9.108;2023-06-22T02:54:39;13.13;;;10.73;;
6791;SDS011;3433;48.730;9.108;2023-06-22T02:57:26;15.63;;;9.97;;
6791;SDS011;3433;48.730;9.108;2023-06-22T03:00:13;15.57;;;11.13;;
6791;SDS011;3433;48.730;9.108;2023-06-22T03:03:03;13.77;;;10.90;;
6791;SDS011;3433;48.730;9.108;2023-06-22T03:05:50;13.57;;;11.20;;
6791;SDS011;3433;48.730;9.108;2023-06-22T03:08:38;10.80;;;9.70;;
6791;SDS011;3433;48.730;9.108;2023-06-22T03:11:29;14.00;;;10.80;;
6791;SDS011;3433;48.730;9.108;2023-06-22T03:14:17;14.30;;;10.57;;
6791;SDS011;3433;48.730;9.108;2023-06-22T03:17:04;13.67;;;11.80;;
6791;SDS011;3433;48.730;9.108;2023-06-22T03:19:51;11.90;;;10.30;;
6791;SDS011;3433;48.730;9.108;2023-06-22T03:22:39;15.23;;;11.10;;
6791;SDS011;3433;48.730;9.108;2023-06-22T03:25:27;16.40;;;11.90;;
6791;SDS011;3433;48.730;9.108;2023-06-22T03:28:15;12.40;;;11.10;;
6791;SDS011;3433;48.730;9.108;2023-06-22T03:31:03;14.17;;;12.00;;
6791;SDS011;3433;48.730;9.108;2023-06-22T03:33:51;12.90;;;11.50;;
6791;SDS011;3433;48.730;9.108;2023-06-22T03:36:39;12.17;;;10.80;;
6791;SDS011;3433;48.730;9.108;2023-06-22T03:39:26;13.63;;;10.87;;
6791;SDS011;3433;48.730;9.108;2023-06-22T03:42:13;13.90;;;11.93;;
6791;SDS011;3433;48.730;9.108;2023-06-22T03:45:02;14.97;;;11.23;;
6791;SDS011;3433;48.730;9.108;2023-06-22T03:47:50;13.80;;;11.30;;
6791;SDS011;3433;48.730;9.108;2023-06-22T03:50:37;13.70;;;11.53;;
6791;SDS011;3433;48.730;9.108;2023-06-22T03:53:24;15.27;;;11.97;;
6791;SDS011;3433;48.730;9.108;2023-06-22T03:56:11;14.47;;;11.00;;
6791;SDS011;3433;48.730;9.108;2023-06-22T03:58:58;14.30;;;11.53;;
6791;SDS011;3433;48.730;9.108;2023-06-22T04:01:47;13.67;;;11.70;;
6791;SDS011;3433;48.730;9.108;2023-06-22T04:04:34;14.33;;;11.70;;
6791;SDS011;3433;48.730;9.108;2023-06-22T04:07:24;17.00;;;11.80;;
6791;SDS011;3433;48.730;9.108;2023-06-22T04:10:11;13.63;;;10.90;;
6791;SDS011;3433;48.730;9.108;2023-06-22T04:12:58;16.93;;;12.13;;
6791;SDS011;3433;48.730;9.108;2023-06-22T04:15:45;16.23;;;12.10;;
6791;SDS011;3433;48.730;9.108;2023-06-22T04:18:34;14.77;;;11.40;;
6791;SDS011;3433;48.730;9.108;2023-06-22T04:21:21;18.77;;;12.20;;
6791;SDS011;3433;48.730;9.108;2023-06-22T04:24:08;14.73;;;11.77;;
6791;SDS011;3433;48.730;9.108;2023-06-22T04:26:56;12.57;;;10.50;;
6791;SDS011;3433;48.730;9.108;2023-06-22T04:29:45;12.50;;;11.23;;
6791;SDS011;3433;48.730;9.108;2023-06-22T04:32:35;13.60;;;11.10;;
6791;SDS011;3433;48.730;9.108;2023-06-22T04:35:23;15.07;;;11.10;;
6791;SDS011;3433;48.730;9.108;2023-06-22T04:38:11;12.50;;;10.13;;
6791;SDS011;3433;48.730;9.108;2023-06-22T04:40:59;13.00;;;11.63;;
6791;SDS011;3433;48.730;9.108;2023-06-22T04:43:48;13.57;;;10.87;;
6791;SDS011;3433;48.730;9.108;2023-06-22T04:46:39;16.73;;;11.30;;
6791;SDS011;3433;48.730;9.108;2023-06-22T04:49:27;14.50;;;10.60;;
6791;SDS011;3433;48.730;9.108;2023-06-22T04:52:19;14.73;;;11.40;;
6791;SDS011;3433;48.730;9.108;2023-06-22T04:55:07;15.27;;;11.23;;
6791;SDS011;3433;48.730;9.108;2023-06-22T04:57:54;20.83;;;11.83;;
6791;SDS011;3433;48.730;9.108;2023-06-22T05:00:41;15.03;;;11.13;;
6791;SDS011;3433;48.730;9.108;2023-06-22T05:03:30;14.70;;;12.13;;
6791;SDS011;3433;48.730;9.108;2023-06-22T05:06:17;12.47;;;11.10;;
6791;SDS011;3433;48.730;9.108;2023-06-22T05:09:05;14.43;;;11.27;;
6791;SDS011;3433;48.730;9.108;2023-06-22T05:11:53;14.60;;;10.80;;
6791;SDS011;3433;48.730;9.108;2023-06-22T05:14:41;12.70;;;10.90;;
6791;SDS011;3433;48.730;9.108;2023-06-22T05:17:29;12.97;;;11.10;;
6791;SDS011;3433;48.730;9.108;2023-06-22T05:20:16;19.10;;;11.87;;
6791;SDS011;3433;48.730;9.108;2023-06-22T05:23:03;13.53;;;11.60;;
6791;SDS011;3433;48.730;9.108;2023-06-22T05:25:52;13.13;;;11.77;;
6791;SDS011;3433;48.730;9.108;2023-06-22T05:28:40;16.83;;;11.27;;
6791;SDS011;3433;48.730;9.108;2023-06-22T05:31:27;14.57;;;11.53;;
6791;SDS011;3433;48.730;9.108;2023-06-22T05:34:15;14.90;;;11.27;;
6791;SDS011;3433;48.730;9.108;2023-06-22T05:37:02;13.00;;;11.07;;
6791;SDS011;3433;48.730;9.108;2023-06-22T05:39:50;13.63;;;10.10;;
6791;SDS011;3433;48.730;9.108;2023-06-22T05:42:38;16.30;;;10.37;;
6791;SDS011;3433;48.730;9.108;2023-06-22T05:45:26;12.50;;;9.77;;
6791;SDS011;3433;48.730;9.108;2023-06-22T05:48:13;15.77;;;10.17;;
6791;SDS011;3433;48.730;9.108;2023-06-22T05:51:00;10.10;;;9.00;;
6791;SDS011;3433;48.730;9.108;2023-06-22T05:53:47;10.07;;;9.07;;
6791;SDS011;3433;48.730;9.108;2023-06-22T05:56:35;11.57;;;9.60;;
6791;SDS011;3433;48.730;9.108;2023-06-22T05:59:24;13.53;;;9.03;;
6791;SDS011;3433;48.730;9.108;2023-06-22T06:02:11;11.23;;;8.00;;
6791;SDS011;3433;48.730;9.108;2023-06-22T06:04:58;14.20;;;9.27;;
6791;SDS011;3433;48.730;9.108;2023-06-22T06:07:48;10.47;;;7.50;;
6791;SDS011;3433;48.730;9.108;2023-06-22T06:10:35;12.80;;;8.80;;
6791;SDS011;3433;48.730;9.108;2023-06-22T06:13:22;9.03;;;6.63;;
6791;SDS011;3433;48.730;9.108;2023-06-22T06:16:11;10.83;;;8.20;;
6791;SDS011;3433;48.730;9.108;2023-06-22T06:18:59;10.97;;;8.37;;
6791;SDS011;3433;48.730;9.108;2023-06-22T06:21:46;10.00;;;8.80;;
6791;SDS011;3433;48.730;9.108;2023-06-22T06:24:33;11.73;;;8.47;;
6791;SDS011;3433;48.730;9.108;2023-06-22T06:27:20;12.20;;;7.10;;
6791;SDS011;3433;48.730;9.108;2023-06-22T06:30:15;10.97;;;8.63;;
6791;SDS011;3433;48.730;9.108;2023-06-22T06:33:05;10.53;;;8.53;;
6791;SDS011;3433;48.730;9.108;2023-06-22T06:35:54;11.80;;;8.50;;
6791;SDS011;3433;48.730;9.108;2023-06-22T06:38:41;11.27;;;8.70;;
6791;SDS011;3433;48.730;9.108;2023-06-22T06:41:28;11.50;;;8.73;;
6791;SDS011;3433;48.730;9.108;2023-06-22T06:44:15;10.80;;;7.63;;
6791;SDS011;3433;48.730;9.108;2023-06-22T06:47:03;10.70;;;8.23;;
6791;SDS011;3433;48.730;9.108;2023-06-22T06:49:52;11.63;;;7.10;;
6791;SDS011;3433;48.730;9.108;2023-06-22T06:52:39;10.80;;;7.67;;
6791;SDS011;3433;48.730;9.108;2023-06-22T06:55:26;11.70;;;7.00;;
6791;SDS011;3433;48.730;9.108;2023-06-22T06:58:14;8.10;;;6.57;;
6791;SDS011;3433;48.730;9.108;2023-06-22T07:01:01;12.53;;;6.67;;
6791;SDS011;3433;48.730;9.108;2023-06-22T07:03:49;12.33;;;7.90;;
6791;SDS011;3433;48.730;9.108;2023-06-22T07:06:37;10.80;;;7.53;;
6791;SDS011;3433;48.730;9.108;2023-06-22T07:09:24;11.27;;;7.93;;
6791;SDS011;3433;48.730;9.108;2023-06-22T07:12:12;8.27;;;6.83;;
6791;SDS011;3433;48.730;9.108;2023-06-22T07:15:01;8.77;;;6.30;;
6791;SDS011;3433;48.730;9.108;2023-06-22T07:17:50;9.10;;;8.03;;
6791;SDS011;3433;48.730;9.108;2023-06-22T07:20:37;11.30;;;6.60;;
6791;SDS011;3433;48.730;9.108;2023-06-22T07:23:28;11.37;;;6.43;;
6791;SDS011;3433;48.730;9.108;2023-06-22T07:26:15;15.43;;;7.20;;
6791;SDS011;3433;48.730;9.108;2023-06-22T07:29:02;6.70;;;5.70;;
6791;SDS011;3433;48.730;9.108;2023-06-22T07:31:50;8.37;;;6.00;;
6791;SDS011;3433;48.730;9.108;2023-06-22T07:34:37;10.23;;;6.30;;
6791;SDS011;3433;48.730;9.108;2023-06-22T07:37:24;12.70;;;6.27;;
6791;SDS011;3433;48.730;9.108;2023-06-22T07:40:14;6.70;;;6.00;;
6791;SDS011;3433;48.730;9.108;2023-06-22T07:43:02;8.93;;;5.47;;
6791;SDS011;3433;48.730;9.108;2023-06-22T07:45:49;7.20;;;6.30;;
6791;SDS011;3433;48.730;9.108;2023-06-22T07:48:38;9.90;;;5.70;;
6791;SDS011;3433;48.730;9.108;2023-06-22T07:51:27;8.23;;;5.93;;
6791;SDS011;3433;48.730;9.108;2023-06-22T07:54:14;7.80;;;5.07;;
6791;SDS011;3433;48.730;9.108;2023-06-22T07:57:04;13.37;;;7.73;;
6791;SDS011;3433;48.730;9.108;2023-06-22T07:59:52;8.10;;;5.30;;
6791;SDS011;3433;48.730;9.108;2023-06-22T08:02:39;8.50;;;5.50;;
6791;SDS011;3433;48.730;9.108;2023-06-22T08:05:26;8.20;;;5.47;;
6791;SDS011;3433;48.730;9.108;2023-06-22T08:08:15;7.30;;;6.40;;
6791;SDS011;3433;48.730;9.108;2023-06-22T08:11:02;8.00;;;6.53;;
6791;SDS011;3433;48.730;9.108;2023-06-22T08:13:51;7.77;;;6.17;;
6791;SDS011;3433;48.730;9.108;2023-06-22T08:16:38;8.27;;;6.57;;
6791;SDS011;3433;48.730;9.108;2023-06-22T08:19:26;10.53;;;5.60;;
6791;SDS011;3433;48.730;9.108;2023-06-22T08:22:13;12.23;;;6.60;;
6791;SDS011;3433;48.730;9.108;2023-06-22T08:25:00;13.13;;;6.20;;
6791;SDS011;3433;48.730;9.108;2023-06-22T08:27:47;14.60;;;6.47;;
6791;SDS011;3433;48.730;9.108;2023-06-22T08:30:36;10.77;;;6.10;;
6791;SDS011;3433;48.730;9.108;2023-06-22T08:33:23;6.60;;;5.63;;
6791;SDS011;3433;48.730;9.108;2023-06-22T08:36:13;9.93;;;6.13;;
6791;SDS011;3433;48.730;9.108;2023-06-22T08:39:01;8.20;;;6.10;;
6791;SDS011;3433;48.730;9.108;2023-06-22T08:41:48;7.77;;;6.33;;
6791;SDS011;3433;48.730;9.108;2023-06-22T08:44:36;7.97;;;6.83;;
6791;SDS011;3433;48.730;9.108;2023-06-22T08:47:24;13.43;;;6.30;;
6791;SDS011;3433;48.730;9.108;2023-06-22T08:50:11;9.53;;;6.63;;
6791;SDS011;3433;48.730;9.108;2023-06-22T08:52:59;8.20;;;6.83;;
6791;SDS011;3433;48.730;9.108;2023-06-22T08:55:46;10.63;;;6.10;;
6791;SDS011;3433;48.730;9.108;2023-06-22T08:58:33;10.93;;;6.20;;
6791;SDS011;3433;48.730;9.108;2023-06-22T09:01:20;9.63;;;6.60;;
6791;SDS011;3433;48.730;9.108;2023-06-22T09:04:09;8.67;;;6.87;;
6791;SDS011;3433;48.730;9.108;2023-06-22T09:06:57;10.93;;;6.10;;
6791;SDS011;3433;48.730;9.108;2023-06-22T09:09:44;11.70;;;6.70;;
6791;SDS011;3433;48.730;9.108;2023-06-22T09:12:31;8.13;;;6.67;;
6791;SDS011;3433;48.730;9.108;2023-06-22T09:15:19;9.43;;;6.40;;
6791;SDS011;3433;48.730;9.108;2023-06-22T09:18:06;12.40;;;7.03;;
6791;SDS011;3433;48.730;9.108;2023-06-22T09:20:58;8.83;;;7.13;;
6791;SDS011;3433;48.730;9.108;2023-06-22T09:23:45;10.90;;;6.33;;
6791;SDS011;3433;48.730;9.108;2023-06-22T09:26:36;10.07;;;7.00;;
6791;SDS011;3433;48.730;9.108;2023-06-22T09:29:23;9.93;;;6.97;;
6791;SDS011;3433;48.730;9.108;2023-06-22T09:32:11;8.23;;;6.70;;
6791;SDS011;3433;48.730;9.108;2023-06-22T09:34:58;10.90;;;6.33;;
6791;SDS011;3433;48.730;9.108;2023-06-22T09:37:46;11.00;;;7.10;;
6791;SDS011;3433;48.730;9.108;2023-06-22T09:40:34;9.33;;;7.10;;
6791;SDS011;3433;48.730;9.108;2023-06-22T09:43:25;9.37;;;6.40;;
6791;SDS011;3433;48.730;9.108;2023-06-22T09:46:12;10.47;;;6.50;;
6791;SDS011;3433;48.730;9.108;2023-06-22T09:48:59;10.83;;;7.13;;
6791;SDS011;3433;48.730;9.108;2023-06-22T09:51:46;10.00;;;7.07;;
6791;SDS011;3433;48.730;9.108;2023-06-22T09:54:36;14.70;;;7.20;;
6791;SDS011;3433;48.730;9.108;2023-06-22T09:57:23;9.63;;;6.83;;
6791;SDS011;3433;48.730;9.108;2023-06-22T10:00:11;9.47;;;7.30;;
6791;SDS011;3433;48.730;9.108;2023-06-22T10:02:59;9.07;;;7.30;;
6791;SDS011;3433;48.730;9.108;2023-06-22T10:05:46;11.13;;;7.20;;
6791;SDS011;3433;48.730;9.108;2023-06-22T10:08:34;11.07;;;7.87;;
6791;SDS011;3433;48.730;9.108;2023-06-22T10:11:23;11.50;;;7.23;;
6791;SDS011;3433;48.730;9.108;2023-06-22T10:14:14;8.20;;;6.90;;
6791;SDS011;3433;48.730;9.108;2023-06-22T10:17:02;10.40;;;7.00;;
6791;SDS011;3433;48.730;9.108;2023-06-22T10:19:49;10.17;;;7.53;;
6791;SDS011;3433;48.730;9.108;2023-06-22T10:22:36;10.73;;;7.80;;
6791;SDS011;3433;48.730;9.108;2023-06-22T10:25:24;11.10;;;7.33;;
6791;SDS011;3433;48.730;9.108;2023-06-22T10:28:13;11.43;;;7.60;;
6791;SDS011;3433;48.730;9.108;2023-06-22T10:31:00;12.40;;;7.57;;
6791;SDS011;3433;48.730;9.108;2023-06-22T10:33:47;8.03;;;6.10;;
6791;SDS011;3433;48.730;9.108;2023-06-22T10:36:35;10.67;;;6.93;;
6791;SDS011;3433;48.730;9.108;2023-06-22T10:39:22;10.70;;;6.10;;
6791;SDS011;3433;48.730;9.108;2023-06-22T10:42:09;14.10;;;6.70;;
6791;SDS011;3433;48.730;9.108;2023-06-22T10:44:58;16.40;;;7.60;;
6791;SDS011;3433;48.730;9.108;2023-06-22T10:47:45;7.90;;;6.63;;
6791;SDS011;3433;48.730;9.108;2023-06-22T10:50:32;13.80;;;7.80;;
6791;SDS011;3433;48.730;9.108;2023-06-22T10:53:19;12.90;;;7.10;;
6791;SDS011;3433;48.730;9.108;2023-06-22T10:56:07;11.73;;;7.37;;
6791;SDS011;3433;48.730;9.108;2023-06-22T10:58:54;10.23;;;6.57;;
6791;SDS011;3433;48.730;9.108;2023-06-22T11:01:43;9.80;;;5.93;;
6791;SDS011;3433;48.730;9.108;2023-06-22T11:04:30;11.83;;;7.20;;
6791;SDS011;3433;48.730;9.108;2023-06-22T11:07:17;12.47;;;7.37;;
6791;SDS011;3433;48.730;9.108;2023-06-22T11:10:04;12.97;;;7.37;;
6791;SDS011;3433;48.730;9.108;2023-06-22T11:12:52;21.87;;;7.90;;
6791;SDS011;3433;48.730;9.108;2023-06-22T11:15:41;10.87;;;7.20;;
6791;SDS011;3433;48.730;9.108;2023-06-22T11:18:29;10.47;;;6.80;;
6791;SDS011;3433;48.730;9.108;2023-06-22T11:21:18;9.87;;;7.60;;
6791;SDS011;3433;48.730;9.108;2023-06-22T11:24:06;9.83;;;7.20;;
6791;SDS011;3433;48.730;9.108;2023-06-22T11:26:53;10.43;;;7.47;;
6791;SDS011;3433;48.730;9.108;2023-06-22T11:29:40;10.50;;;6.90;;
6791;SDS011;3433;48.730;9.108;2023-06-22T11:32:27;15.80;;;7.63;;
6791;SDS011;3433;48.730;9.108;2023-06-22T11:35:16;11.50;;;7.53;;
6791;SDS011;3433;48.730;9.108;2023-06-22T11:38:37;15.90;;;7.53;;
6791;SDS011;3433;48.730;9.108;2023-06-22T11:41:24;12.13;;;7.17;;
6791;SDS011;3433;48.730;9.108;2023-06-22T11:44:12;10.30;;;7.90;;
6791;SDS011;3433;48.730;9.108;2023-06-22T11:46:59;9.63;;;6.37;;
6791;SDS011;3433;48.730;9.108;2023-06-22T11:49:49;11.40;;;7.40;;
6791;SDS011;3433;48.730;9.108;2023-06-22T11:52:37;9.93;;;7.30;;
6791;SDS011;3433;48.730;9.108;2023-06-22T11:55:24;10.53;;;7.30;;
6791;SDS011;3433;48.730;9.108;2023-06-22T11:58:11;14.27;;;7.20;;
6791;SDS011;3433;48.730;9.108;2023-06-22T12:00:59;12.87;;;7.63;;
6791;SDS011;3433;48.730;9.108;2023-06-22T12:03:46;10.73;;;7.50;;
6791;SDS011;3433;48.730;9.108;2023-06-22T12:06:35;12.80;;;8.47;;
6791;SDS011;3433;48.730;9.108;2023-06-22T12:09:25;11.80;;;8.10;;
6791;SDS011;3433;48.730;9.108;2023-06-22T12:12:12;17.40;;;8.53;;
6791;SDS011;3433;48.730;9.108;2023-06-22T12:14:59;11.53;;;6.67;;
6791;SDS011;3433;48.730;9.108;2023-06-22T12:17:49;15.00;;;7.27;;
6791;SDS011;3433;48.730;9.108;2023-06-22T12:20:36;13.83;;;7.53;;
6791;SDS011;3433;48.730;9.108;2023-06-22T12:23:23;11.00;;;7.37;;
6791;SDS011;3433;48.730;9.108;2023-06-22T12:26:12;10.53;;;7.43;;
6791;SDS011;3433;48.730;9.108;2023-06-22T12:28:59;14.50;;;6.97;;
6791;SDS011;3433;48.730;9.108;2023-06-22T12:31:46;12.30;;;7.10;;
6791;SDS011;3433;48.730;9.108;2023-06-22T12:34:34;16.80;;;8.07;;
6791;SDS011;3433;48.730;9.108;2023-06-22T12:37:21;9.60;;;7.40;;
6791;SDS011;3433;48.730;9.108;2023-06-22T12:40:09;12.60;;;8.10;;
6791;SDS011;3433;48.730;9.108;2023-06-22T12:42:58;10.70;;;7.30;;
6791;SDS011;3433;48.730;9.108;2023-06-22T12:45:45;13.43;;;7.43;;
6791;SDS011;3433;48.730;9.108;2023-06-22T12:48:32;12.20;;;8.33;;
6791;SDS011;3433;48.730;9.108;2023-06-22T12:51:22;27.90;;;8.20;;
6791;SDS011;3433;48.730;9.108;2023-06-22T12:54:09;13.23;;;8.47;;
6791;SDS011;3433;48.730;9.108;2023-06-22T12:56:57;16.37;;;7.40;;
6791;SDS011;3433;48.730;9.108;2023-06-22T12:59:46;16.93;;;8.27;;
6791;SDS011;3433;48.730;9.108;2023-06-22T13:02:33;15.83;;;8.70;;
6791;SDS011;3433;48.730;9.108;2023-06-22T13:05:20;14.77;;;7.43;;
6791;SDS011;3433;48.730;9.108;2023-06-22T13:08:07;11.70;;;7.90;;
6791;SDS011;3433;48.730;9.108;2023-06-22T13:10:56;11.70;;;8.00;;
6791;SDS011;3433;48.730;9.108;2023-06-22T13:13:45;9.93;;;7.07;;
6791;SDS011;3433;48.730;9.108;2023-06-22T13:16:57;11.57;;;7.47;;
6791;SDS011;3433;48.730;9.108;2023-06-22T13:19:44;13.33;;;7.90;;
6791;SDS011;3433;48.730;9.108;2023-06-22T13:22:32;18.50;;;8.63;;
6791;SDS011;3433;48.730;9.108;2023-06-22T13:25:25;16.37;;;7.60;;
6791;SDS011;3433;48.730;9.108;2023-06-22T13:28:12;12.83;;;7.53;;
6791;SDS011;3433;48.730;9.108;2023-06-22T13:31:01;13.43;;;7.63;;
6791;SDS011;3433;48.730;9.108;2023-06-22T13:33:49;12.73;;;7.97;;
6791;SDS011;3433;48.730;9.108;2023-06-22T13:36:37;13.40;;;7.10;;
6791;SDS011;3433;48.730;9.108;2023-06-22T13:39:25;9.20;;;6.67;;
6791;SDS011;3433;48.730;9.108;2023-06-22T13:42:12;12.63;;;6.73;;
6791;SDS011;3433;48.730;9.108;2023-06-22T13:44:59;11.90;;;7.07;;
6791;SDS011;3433;48.730;9.108;2023-06-22T13:47:46;9.87;;;7.00;;
6791;SDS011;3433;48.730;9.108;2023-06-22T13:50:35;14.80;;;7.60;;
6791;SDS011;3433;48.730;9.108;2023-06-22T13:53:24;10.53;;;6.90;;
6791;SDS011;3433;48.730;9.108;2023-06-22T13:56:11;14.03;;;7.23;;
6791;SDS011;3433;48.730;9.108;2023-06-22T13:58:58;10.43;;;7.73;;
6791;SDS011;3433;48.730;9.108;2023-06-22T14:01:45;13.33;;;6.77;;
6791;SDS011;3433;48.730;9.108;2023-06-22T14:04:32;11.40;;;6.30;;
6791;SDS011;3433;48.730;9.108;2023-06-22T14:07:21;16.10;;;7.60;;
6791;SDS011;3433;48.730;9.108;2023-06-22T14:10:09;15.00;;;7.90;;
6791;SDS011;3433;48.730;9.108;2023-06-22T14:12:56;8.73;;;6.00;;
6791;SDS011;3433;48.730;9.108;2023-06-22T14:15:45;15.57;;;6.37;;
6791;SDS011;3433;48.730;9.108;2023-06-22T14:18:33;9.60;;;7.10;;
6791;SDS011;3433;48.730;9.108;2023-06-22T14:21:20;12.37;;;6.60;;
6791;SDS011;3433;48.730;9.108;2023-06-22T14:24:09;8.67;;;6.20;;
6791;SDS011;3433;48.730;9.108;2023-06-22T14:26:57;14.50;;;5.90;;
6791;SDS011;3433;48.730;9.108;2023-06-22T14:29:44;9.97;;;4.87;;
6791;SDS011;3433;48.730;9.108;2023-06-22T14:32:31;10.37;;;5.80;;
6791;SDS011;3433;48.730;9.108;2023-06-22T14:35:18;12.40;;;5.73;;
6791;SDS011;3433;48.730;9.108;2023-06-22T15:00:46;14.83;;;4.10;;
6791;SDS011;3433;48.730;9.108;2023-06-22T15:14:55;11.10;;;4.70;;
6791;SDS011;3433;48.730;9.108;2023-06-22T15:17:44;10.33;;;3.93;;
6791;SDS011;3433;48.730;9.108;2023-06-22T15:20:31;11.23;;;4.80;;
6791;SDS011;3433;48.730;9.108;2023-06-22T15:23:18;8.97;;;3.37;;
6791;SDS011;3433;48.730;9.108;2023-06-22T15:26:05;9.47;;;4.37;;
6791;SDS011;3433;48.730;9.108;2023-06-22T15:28:53;9.70;;;3.90;;
6791;SDS011;3433;48.730;9.108;2023-06-22T15:31:40;13.83;;;4.30;;
6791;SDS011;3433;48.730;9.108;2023-06-22T15:34:28;10.63;;;4.47;;
6791;SDS011;3433;48.730;9.108;2023-06-22T15:37:16;5.43;;;4.00;;
6791;SDS011;3433;48.730;9.108;2023-06-22T15:40:04;9.53;;;4.53;;
6791;SDS011;3433;48.730;9.108;2023-06-22T15:42:52;9.37;;;4.27;;
6791;SDS011;3433;48.730;9.108;2023-06-22T15:45:39;6.90;;;4.17;;
6791;SDS011;3433;48.730;9.108;2023-06-22T15:48:26;10.43;;;4.00;;
6791;SDS011;3433;48.730;9.108;2023-06-22T15:51:15;9.63;;;3.77;;
6791;SDS011;3433;48.730;9.108;2023-06-22T15:54:02;10.50;;;4.30;;
6791;SDS011;3433;48.730;9.108;2023-06-22T15:56:49;7.13;;;3.50;;
6791;SDS011;3433;48.730;9.108;2023-06-22T15:59:36;10.27;;;3.97;;
6791;SDS011;3433;48.730;9.108;2023-06-22T16:02:23;8.10;;;4.07;;
6791;SDS011;3433;48.730;9.108;2023-06-22T16:05:12;13.13;;;4.63;;
6791;SDS011;3433;48.730;9.108;2023-06-22T16:08:02;8.30;;;4.20;;
6791;SDS011;3433;48.730;9.108;2023-06-22T16:10:49;9.00;;;3.90;;
6791;SDS011;3433;48.730;9.108;2023-06-22T16:13:36;9.90;;;4.13;;
6791;SDS011;3433;48.730;9.108;2023-06-22T16:16:24;7.60;;;4.20;;
6791;SDS011;3433;48.730;9.108;2023-06-22T16:19:11;8.20;;;3.70;;
6791;SDS011;3433;48.730;9.108;2023-06-22T16:21:58;10.70;;;4.97;;
6791;SDS011;3433;48.730;9.108;2023-06-22T16:24:47;15.23;;;5.37;;
6791;SDS011;3433;48.730;9.108;2023-06-22T16:27:34;15.40;;;4.83;;
6791;SDS011;3433;48.730;9.108;2023-06-22T16:30:21;12.40;;;4.50;;
6791;SDS011;3433;48.730;9.108;2023-06-22T16:33:09;9.57;;;4.87;;
6791;SDS011;3433;48.730;9.108;2023-06-22T16:35:56;8.30;;;3.83;;
6791;SDS011;3433;48.730;9.108;2023-06-22T16:38:43;12.97;;;4.57;;
6791;SDS011;3433;48.730;9.108;2023-06-22T16:41:31;12.80;;;4.90;;
6791;SDS011;3433;48.730;9.108;2023-06-22T16:44:19;6.87;;;4.00;;
6791;SDS011;3433;48.730;9.108;2023-06-22T16:47:06;9.60;;;3.97;;
6791;SDS011;3433;48.730;9.108;2023-06-22T16:49:53;8.90;;;5.60;;
6791;SDS011;3433;48.730;9.108;2023-06-22T16:52:41;8.00;;;3.97;;
6791;SDS011;3433;48.730;9.108;2023-06-22T16:55:28;6.93;;;3.83;;
6791;SDS011;3433;48.730;9.108;2023-06-22T16:58:19;7.90;;;4.00;;
6791;SDS011;3433;48.730;9.108;2023-06-22T17:01:09;7.03;;;4.07;;
6791;SDS011;3433;48.730;9.108;2023-06-22T17:04:00;12.23;;;3.80;;
6791;SDS011;3433;48.730;9.108;2023-06-22T17:06:53;7.70;;;3.67;;
6791;SDS011;3433;48.730;9.108;2023-06-22T17:09:44;11.00;;;3.93;;
6791;SDS011;3433;48.730;9.108;2023-06-22T17:12:33;11.07;;;4.30;;
6791;SDS011;3433;48.730;9.108;2023-06-22T17:15:22;8.00;;;3.80;;
6791;SDS011;3433;48.730;9.108;2023-06-22T17:18:10;9.80;;;4.37;;
6791;SDS011;3433;48.730;9.108;2023-06-22T17:20:59;9.63;;;4.40;;
6791;SDS011;3433;48.730;9.108;2023-06-22T17:23:46;10.80;;;4.10;;
6791;SDS011;3433;48.730;9.108;2023-06-22T17:26:34;7.70;;;4.37;;
6791;SDS011;3433;48.730;9.108;2023-06-22T17:29:23;14.10;;;4.20;;
6791;SDS011;3433;48.730;9.108;2023-06-22T17:32:18;9.33;;;3.80;;
6791;SDS011;3433;48.730;9.108;2023-06-22T17:35:09;8.83;;;3.13;;
6791;SDS011;3433;48.730;9.108;2023-06-22T17:37:57;8.33;;;3.40;;
6791;SDS011;3433;48.730;9.108;2023-06-22T17:40:45;5.20;;;2.57;;
6791;SDS011;3433;48.730;9.108;2023-06-22T17:43:32;15.57;;;3.77;;
6791;SDS011;3433;48.730;9.108;2023-06-22T17:46:33;9.47;;;4.97;;